createdAt,value
2023-04-17T00:01:20.204Z,99081.81
2023-04-17T00:03:47.213Z,99079.69
2023-04-17T00:06:14.066Z,99080.78
2023-04-17T00:08:40.669Z,99078.84
2023-04-17T00:11:08.848Z,99081.94
2023-04-17T00:13:36.817Z,99083.38
2023-04-17T00:16:03.329Z,99075.72
2023-04-17T00:18:29.988Z,99080.53
2023-04-17T00:20:56.552Z,99074.09
2023-04-17T00:23:23.071Z,99072.19
2023-04-17T00:25:49.555Z,99074.59
2023-04-17T00:28:16.015Z,99074.59
2023-04-17T00:30:42.500Z,99077.56
2023-04-17T00:33:09.011Z,99075.09
2023-04-17T00:35:35.618Z,99081.72
2023-04-17T00:38:02.097Z,99070.84
2023-04-17T00:40:28.592Z,99066.75
2023-04-17T00:43:03.591Z,99068.72
2023-04-17T00:45:31.252Z,99067.97
2023-04-17T00:48:01.491Z,99077.56
2023-04-17T00:50:29.142Z,99074.59
2023-04-17T00:52:55.885Z,99066.31
2023-04-17T00:55:23.094Z,99071.91
2023-04-17T00:57:50.539Z,99061.38
2023-04-17T01:00:18.308Z,99070.50
2023-04-17T01:02:46.690Z,99057.50
2023-04-17T01:05:14.207Z,99066.22
2023-04-17T01:07:41.922Z,99068.50
2023-04-17T01:10:09.920Z,99068.31
2023-04-17T01:12:36.655Z,99063.84
2023-04-17T01:15:03.479Z,99067.59
2023-04-17T01:17:30.005Z,99064.84
2023-04-17T01:19:57.551Z,99061.59
2023-04-17T01:22:24.082Z,99061.41
2023-04-17T01:24:50.809Z,99064.00
2023-04-17T01:27:17.305Z,99063.44
2023-04-17T01:29:44.732Z,99069.16
2023-04-17T01:32:11.455Z,99071.63
2023-04-17T01:34:37.969Z,99076.63
2023-04-17T01:37:04.815Z,99068.97
2023-04-17T01:39:31.416Z,99070.16
2023-04-17T01:41:58.001Z,99082.09
2023-04-17T01:44:24.871Z,99076.31
2023-04-17T01:46:51.378Z,99075.09
2023-04-17T01:49:17.870Z,99074.16
2023-04-17T01:51:44.378Z,99069.44
2023-04-17T01:54:10.972Z,99078.63
2023-04-17T01:56:37.525Z,99078.59
2023-04-17T01:59:04.053Z,99078.59
2023-04-17T02:01:31.240Z,99078.88
2023-04-17T02:03:57.896Z,99077.34
2023-04-17T02:06:24.888Z,99079.88
2023-04-17T02:08:51.430Z,99066.97
2023-04-17T02:11:18.376Z,99075.16
2023-04-17T02:13:44.843Z,99072.22
2023-04-17T02:16:12.487Z,99076.63
2023-04-17T02:18:41.333Z,99072.50
2023-04-17T02:21:09.657Z,99076.53
2023-04-17T02:23:36.561Z,99074.84
2023-04-17T02:26:03.160Z,99065.47
2023-04-17T02:28:29.650Z,99064.00
2023-04-17T02:30:56.193Z,99070.50
2023-04-17T02:33:22.861Z,99069.50
2023-04-17T02:35:49.344Z,99064.56
2023-04-17T02:38:15.840Z,99062.63
2023-04-17T02:40:42.289Z,99066.09
2023-04-17T02:43:08.969Z,99062.72
2023-04-17T02:45:35.576Z,99056.56
2023-04-17T02:48:02.926Z,99066.13
2023-04-17T02:50:29.443Z,99056.94
2023-04-17T02:52:55.894Z,99064.41
2023-04-17T02:55:22.560Z,99059.13
2023-04-17T02:57:48.981Z,99063.63
2023-04-17T03:00:15.734Z,99066.47
2023-04-17T03:02:42.388Z,99058.69
2023-04-17T03:05:11.455Z,99067.38
2023-04-17T03:07:37.965Z,99065.09
2023-04-17T03:10:04.849Z,99069.16
2023-04-17T03:12:31.323Z,99066.00
2023-04-17T03:14:57.857Z,99065.44
2023-04-17T03:17:24.345Z,99064.66
2023-04-17T03:19:51.231Z,99071.59
2023-04-17T03:22:17.889Z,99067.22
2023-04-17T03:24:44.352Z,99067.75
2023-04-17T03:27:11.093Z,99065.53
2023-04-17T03:29:37.701Z,99070.78
2023-04-17T03:32:04.474Z,99075.91
2023-04-17T03:34:31.476Z,99077.41
2023-04-17T03:36:58.839Z,99079.25
2023-04-17T03:39:25.357Z,99075.19
2023-04-17T03:41:51.857Z,99078.69
2023-04-17T03:44:19.124Z,99078.09
2023-04-17T03:46:45.800Z,99072.84
2023-04-17T03:49:12.547Z,99078.78
2023-04-17T03:51:39.233Z,99079.44
2023-04-17T03:54:05.811Z,99072.53
2023-04-17T03:56:32.370Z,99075.69
2023-04-17T03:58:59.125Z,99077.03
2023-04-17T04:01:28.143Z,99078.78
2023-04-17T04:03:55.528Z,99080.56
2023-04-17T04:06:22.496Z,99081.94
2023-04-17T04:08:49.489Z,99084.72
2023-04-17T04:11:16.703Z,99089.19
2023-04-17T04:13:43.252Z,99086.22
2023-04-17T04:16:09.949Z,99084.41
2023-04-17T04:18:37.094Z,99088.91
2023-04-17T04:21:03.856Z,99081.97
2023-04-17T04:23:30.567Z,99088.22
2023-04-17T04:25:57.887Z,99091.81
2023-04-17T04:28:24.497Z,99079.91
2023-04-17T04:30:53.580Z,99087.06
2023-04-17T04:33:21.010Z,99090.09
2023-04-17T04:35:48.551Z,99096.53
2023-04-17T04:38:17.176Z,99092.78
2023-04-17T04:40:52.059Z,99092.41
2023-04-17T04:43:21.649Z,99097.44
2023-04-17T04:45:48.750Z,99097.03
2023-04-17T04:48:15.298Z,99093.03
2023-04-17T04:50:41.807Z,99093.25
2023-04-17T04:53:08.256Z,99093.66
2023-04-17T04:55:34.793Z,99093.50
2023-04-17T04:58:01.236Z,99102.47
2023-04-17T05:00:27.732Z,99102.38
2023-04-17T05:02:54.469Z,99106.97
2023-04-17T05:05:21.270Z,99107.47
2023-04-17T05:07:47.722Z,99099.38
2023-04-17T05:10:14.227Z,99110.94
2023-04-17T05:12:41.612Z,99110.38
2023-04-17T05:15:08.851Z,99110.59
2023-04-17T05:17:36.383Z,99110.78
2023-04-17T05:20:06.834Z,99110.06
2023-04-17T05:22:33.295Z,99115.59
2023-04-17T05:24:59.788Z,99114.16
2023-04-17T05:27:29.124Z,99118.78
2023-04-17T05:29:55.694Z,99116.50
2023-04-17T05:32:22.507Z,99115.56
2023-04-17T05:34:49.259Z,99117.91
2023-04-17T05:37:15.794Z,99121.13
2023-04-17T05:39:42.255Z,99122.47
2023-04-17T05:42:08.780Z,99122.59
2023-04-17T05:44:35.214Z,99120.72
2023-04-17T05:47:01.706Z,99128.75
2023-04-17T05:49:28.292Z,99118.53
2023-04-17T05:51:54.927Z,99117.13
2023-04-17T05:54:21.377Z,99125.69
2023-04-17T05:56:49.313Z,99126.19
2023-04-17T05:59:15.985Z,99126.22
2023-04-17T06:01:43.542Z,99130.38
2023-04-17T06:04:10.273Z,99131.06
2023-04-17T06:06:37.261Z,99128.25
2023-04-17T06:09:05.639Z,99137.69
2023-04-17T06:11:32.394Z,99125.25
2023-04-17T06:13:58.925Z,99144.00
2023-04-17T06:16:25.533Z,99144.91
2023-04-17T06:18:52.071Z,99140.16
2023-04-17T06:21:18.583Z,99141.13
2023-04-17T06:23:45.436Z,99145.06
2023-04-17T06:26:12.419Z,99143.81
2023-04-17T06:28:38.895Z,99151.06
2023-04-17T06:31:05.540Z,99151.41
2023-04-17T06:33:32.434Z,99148.22
2023-04-17T06:35:58.911Z,99147.75
2023-04-17T06:38:25.379Z,99151.31
2023-04-17T06:40:52.836Z,99153.13
2023-04-17T06:43:19.504Z,99154.44
2023-04-17T06:45:46.752Z,99156.69
2023-04-17T06:48:13.222Z,99158.84
2023-04-17T06:50:39.698Z,99161.03
2023-04-17T06:53:06.414Z,99170.84
2023-04-17T06:55:32.946Z,99167.88
2023-04-17T06:57:59.447Z,99173.34
2023-04-17T07:00:26.288Z,99180.72
2023-04-17T07:02:52.940Z,99167.25
2023-04-17T07:05:19.647Z,99167.25
2023-04-17T07:07:46.144Z,99173.59
2023-04-17T07:10:15.648Z,99166.09
2023-04-17T07:12:42.119Z,99176.84
2023-04-17T07:15:09.454Z,99177.69
2023-04-17T07:17:36.021Z,99178.25
2023-04-17T07:20:05.210Z,99180.22
2023-04-17T07:22:34.482Z,99181.19
2023-04-17T07:25:00.966Z,99182.59
2023-04-17T07:27:27.516Z,99187.94
2023-04-17T07:29:55.090Z,99192.78
2023-04-17T07:32:24.788Z,99198.50
2023-04-17T07:34:51.362Z,99199.19
2023-04-17T07:37:17.859Z,99202.75
2023-04-17T07:39:45.291Z,99201.38
2023-04-17T07:42:11.842Z,99200.28
2023-04-17T07:44:39.065Z,99196.91
2023-04-17T07:47:05.643Z,99200.50
2023-04-17T07:49:32.356Z,99206.88
2023-04-17T07:51:58.988Z,99199.44
2023-04-17T07:54:25.591Z,99198.00
2023-04-17T07:56:52.066Z,99205.94
2023-04-17T07:59:18.636Z,99199.56
2023-04-17T08:01:45.135Z,99200.84
2023-04-17T08:04:11.982Z,99195.97
2023-04-17T08:06:39.015Z,99202.38
2023-04-17T08:09:05.785Z,99205.00
2023-04-17T08:11:40.028Z,99206.03
2023-04-17T08:14:12.744Z,99209.91
2023-04-17T08:16:39.289Z,99206.25
2023-04-17T08:19:05.777Z,99209.34
2023-04-17T08:21:32.642Z,99211.41
2023-04-17T08:23:59.186Z,99210.94
2023-04-17T08:26:25.704Z,99209.91
2023-04-17T08:28:53.610Z,99212.50
2023-04-17T08:31:20.346Z,99213.53
2023-04-17T08:33:46.847Z,99209.91
2023-04-17T08:36:13.346Z,99216.88
2023-04-17T08:38:39.868Z,99222.81
2023-04-17T08:41:13.251Z,99214.59
2023-04-17T08:43:41.201Z,99214.63
2023-04-17T08:46:08.014Z,99218.75
2023-04-17T08:48:34.843Z,99216.56
2023-04-17T08:51:13.206Z,99215.31
2023-04-17T08:53:45.008Z,99222.31
2023-04-17T08:56:11.473Z,99219.09
2023-04-17T08:58:38.007Z,99217.28
2023-04-17T09:01:15.601Z,99220.34
2023-04-17T09:03:45.149Z,99226.66
2023-04-17T09:06:12.801Z,99221.84
2023-04-17T09:08:55.861Z,99220.38
2023-04-17T09:11:22.500Z,99224.56
2023-04-17T09:13:49.106Z,99223.75
2023-04-17T09:16:16.043Z,99221.84
2023-04-17T09:18:48.302Z,99219.97
2023-04-17T09:21:32.958Z,99227.97
2023-04-17T09:23:59.700Z,99238.00
2023-04-17T09:26:35.737Z,99226.91
2023-04-17T09:29:18.509Z,99231.97
2023-04-17T09:31:46.047Z,99236.44
2023-04-17T09:34:13.713Z,99236.13
2023-04-17T09:36:43.048Z,99236.84
2023-04-17T09:39:23.962Z,99230.88
2023-04-17T09:42:02.323Z,99224.59
2023-04-17T09:44:30.159Z,99239.53
2023-04-17T09:46:57.575Z,99228.25
2023-04-17T09:49:34.048Z,99238.38
2023-04-17T09:52:00.972Z,99234.38
2023-04-17T09:54:31.590Z,99233.84
2023-04-17T09:57:02.781Z,99229.69
2023-04-17T09:59:30.624Z,99224.53
2023-04-17T10:01:57.580Z,99222.06
2023-04-17T10:04:24.298Z,99220.97
2023-04-17T10:06:50.950Z,99221.13
2023-04-17T10:09:17.374Z,99208.63
2023-04-17T10:11:46.984Z,99214.31
2023-04-17T10:14:27.941Z,99215.88
2023-04-17T10:16:54.813Z,99216.44
2023-04-17T10:19:36.564Z,99216.44
2023-04-17T10:22:19.527Z,99212.47
2023-04-17T10:24:51.766Z,99209.00
2023-04-17T10:27:27.295Z,99206.00
2023-04-17T10:29:58.116Z,99210.84
2023-04-17T10:32:28.908Z,99200.53
2023-04-17T10:35:00.923Z,99205.06
2023-04-17T10:37:52.415Z,99211.84
2023-04-17T10:40:23.015Z,99202.91
2023-04-17T10:43:25.217Z,99206.16
2023-04-17T10:46:12.520Z,99203.28
2023-04-17T10:48:56.403Z,99199.72
2023-04-17T10:51:29.025Z,99203.53
2023-04-17T10:54:10.042Z,99212.09
2023-04-17T10:56:40.073Z,99212.41
2023-04-17T10:59:13.034Z,99213.19
2023-04-17T11:01:49.173Z,99202.34
2023-04-17T11:04:30.337Z,99197.88
2023-04-17T11:06:57.949Z,99206.84
2023-04-17T11:09:29.633Z,99203.50
2023-04-17T11:12:01.870Z,99201.09
2023-04-17T11:14:30.101Z,99201.38
2023-04-17T11:16:56.803Z,99208.13
2023-04-17T11:19:26.197Z,99201.09
2023-04-17T11:21:57.226Z,99208.63
2023-04-17T11:24:31.931Z,99208.09
2023-04-17T11:27:00.898Z,99206.41
2023-04-17T11:29:28.228Z,99197.91
2023-04-17T11:31:56.832Z,99191.06
2023-04-17T11:34:26.568Z,99197.47
2023-04-17T11:37:00.199Z,99198.09
2023-04-17T11:39:31.106Z,99195.38
2023-04-17T11:41:58.053Z,99187.88
2023-04-17T11:44:25.839Z,99192.56
2023-04-17T11:46:54.728Z,99201.94
2023-04-17T11:49:38.833Z,99197.66
2023-04-17T11:52:06.258Z,99193.75
2023-04-17T11:54:37.988Z,99194.34
2023-04-17T11:57:13.632Z,99197.97
2023-04-17T11:59:42.335Z,99194.34
2023-04-17T12:02:10.149Z,99188.16
2023-04-17T12:04:39.432Z,99189.91
2023-04-17T12:07:08.446Z,99195.38
2023-04-17T12:09:35.811Z,99195.00
2023-04-17T12:12:06.434Z,99194.84
2023-04-17T12:14:33.226Z,99193.03
2023-04-17T12:16:59.862Z,99189.16
2023-04-17T12:19:27.311Z,99188.69
2023-04-17T12:21:54.401Z,99196.66
2023-04-17T12:24:22.867Z,99197.09
2023-04-17T12:26:51.596Z,99192.03
2023-04-17T12:29:22.081Z,99197.13
2023-04-17T12:31:56.379Z,99204.34
2023-04-17T12:34:23.086Z,99195.13
2023-04-17T12:36:51.020Z,99191.00
2023-04-17T12:39:17.694Z,99196.53
2023-04-17T12:41:44.208Z,99195.00
2023-04-17T12:44:11.302Z,99202.84
2023-04-17T12:46:38.173Z,99202.63
2023-04-17T12:49:04.801Z,99190.22
2023-04-17T12:51:37.285Z,99196.25
2023-04-17T12:54:03.909Z,99199.41
2023-04-17T12:56:30.596Z,99189.94
2023-04-17T12:58:57.162Z,99181.72
2023-04-17T13:01:25.232Z,99183.25
2023-04-17T13:03:51.986Z,99190.03
2023-04-17T13:06:18.648Z,99188.13
2023-04-17T13:08:45.186Z,99192.44
2023-04-17T13:11:11.676Z,99187.31
2023-04-17T13:13:38.176Z,99183.78
2023-04-17T13:16:05.269Z,99189.81
2023-04-17T13:18:31.733Z,99180.00
2023-04-17T13:20:58.220Z,99183.53
2023-04-17T13:23:24.713Z,99188.00
2023-04-17T13:25:51.260Z,99183.63
2023-04-17T13:28:17.887Z,99181.50
2023-04-17T13:30:44.460Z,99179.31
2023-04-17T13:33:11.013Z,99176.34
2023-04-17T13:35:37.545Z,99176.44
2023-04-17T13:38:04.712Z,99169.38
2023-04-17T13:40:31.304Z,99175.69
2023-04-17T13:42:58.371Z,99174.13
2023-04-17T13:45:24.945Z,99169.88
2023-04-17T13:47:51.469Z,99176.84
2023-04-17T13:50:18.101Z,99162.22
2023-04-17T13:52:44.621Z,99169.34
2023-04-17T13:55:14.325Z,99166.44
2023-04-17T13:57:40.878Z,99165.72
2023-04-17T14:00:08.199Z,99166.25
2023-04-17T14:02:37.898Z,99169.38
2023-04-17T14:05:05.614Z,99166.94
2023-04-17T14:07:32.242Z,99161.13
2023-04-17T14:09:58.778Z,99166.28
2023-04-17T14:12:25.364Z,99170.59
2023-04-17T14:14:51.789Z,99166.81
2023-04-17T14:17:18.360Z,99165.41
2023-04-17T14:19:44.961Z,99172.78
2023-04-17T14:22:11.495Z,99167.94
2023-04-17T14:24:37.977Z,99172.09
2023-04-17T14:27:04.499Z,99175.34
2023-04-17T14:29:31.035Z,99165.06
2023-04-17T14:31:57.586Z,99169.03
2023-04-17T14:34:24.134Z,99173.72
2023-04-17T14:36:50.849Z,99165.38
2023-04-17T14:39:17.400Z,99168.00
2023-04-17T14:41:43.916Z,99158.38
2023-04-17T14:44:10.590Z,99169.38
2023-04-17T14:46:37.244Z,99168.63
2023-04-17T14:49:03.876Z,99173.63
2023-04-17T14:51:30.866Z,99160.97
2023-04-17T14:53:57.516Z,99151.53
2023-04-17T14:56:24.288Z,99150.91
2023-04-17T14:58:50.963Z,99161.91
2023-04-17T15:01:17.541Z,99154.44
2023-04-17T15:03:46.848Z,99148.03
2023-04-17T15:06:15.600Z,99150.56
2023-04-17T15:08:42.188Z,99156.84
2023-04-17T15:11:08.913Z,99149.97
2023-04-17T15:13:35.883Z,99152.72
2023-04-17T15:16:02.743Z,99144.06
2023-04-17T15:18:29.268Z,99149.34
2023-04-17T15:20:56.287Z,99149.81
2023-04-17T15:23:25.255Z,99143.75
2023-04-17T15:25:54.081Z,99147.88
2023-04-17T15:28:20.929Z,99141.97
2023-04-17T15:30:47.446Z,99142.59
2023-04-17T15:33:13.961Z,99143.81
2023-04-17T15:35:40.537Z,99149.56
2023-04-17T15:38:07.548Z,99145.72
2023-04-17T15:40:34.156Z,99142.09
2023-04-17T15:43:01.607Z,99146.91
2023-04-17T15:45:28.262Z,99139.72
2023-04-17T15:47:55.244Z,99141.38
2023-04-17T15:50:22.097Z,99137.66
2023-04-17T15:52:48.591Z,99142.34
2023-04-17T15:55:15.661Z,99139.91
2023-04-17T15:57:43.199Z,99149.84
2023-04-17T16:00:10.805Z,99151.69
2023-04-17T16:02:37.575Z,99152.03
2023-04-17T16:05:04.692Z,99152.88
2023-04-17T16:07:32.094Z,99153.72
2023-04-17T16:09:59.194Z,99156.75
2023-04-17T16:12:27.896Z,99160.03
2023-04-17T16:14:54.576Z,99154.91
2023-04-17T16:17:21.225Z,99154.44
2023-04-17T16:19:49.601Z,99148.63
2023-04-17T16:22:18.461Z,99147.91
2023-04-17T16:24:45.007Z,99146.34
2023-04-17T16:27:11.520Z,99149.34
2023-04-17T16:29:38.143Z,99142.97
2023-04-17T16:32:04.732Z,99143.66
2023-04-17T16:34:31.233Z,99146.09
2023-04-17T16:36:57.717Z,99143.56
2023-04-17T16:39:24.397Z,99138.97
2023-04-17T16:41:52.539Z,99137.31
2023-04-17T16:44:19.041Z,99129.59
2023-04-17T16:47:05.584Z,99133.09
2023-04-17T16:49:32.003Z,99132.97
2023-04-17T16:51:59.211Z,99130.78
2023-04-17T16:54:26.144Z,99123.53
2023-04-17T16:56:52.650Z,99131.53
2023-04-17T16:59:19.205Z,99128.84
2023-04-17T17:01:47.160Z,99130.16
2023-04-17T17:04:13.852Z,99138.00
2023-04-17T17:06:40.410Z,99134.75
2023-04-17T17:09:06.989Z,99134.75
2023-04-17T17:11:33.523Z,99137.94
2023-04-17T17:14:00.057Z,99141.63
2023-04-17T17:16:26.638Z,99145.38
2023-04-17T17:18:53.136Z,99143.56
2023-04-17T17:21:19.631Z,99153.78
2023-04-17T17:23:46.102Z,99150.84
2023-04-17T17:26:12.626Z,99151.94
2023-04-17T17:28:39.159Z,99150.25
2023-04-17T17:31:07.926Z,99156.25
2023-04-17T17:33:35.804Z,99160.09
2023-04-17T17:36:03.040Z,99148.53
2023-04-17T17:38:30.737Z,99162.84
2023-04-17T17:40:57.473Z,99154.22
2023-04-17T17:43:24.175Z,99158.69
2023-04-17T17:45:50.944Z,99156.25
2023-04-17T17:48:18.179Z,99153.81
2023-04-17T17:50:44.896Z,99156.91
2023-04-17T17:53:12.899Z,99156.69
2023-04-17T17:55:39.905Z,99155.59
2023-04-17T17:58:08.379Z,99164.88
2023-04-17T18:00:35.402Z,99166.22
2023-04-17T18:03:02.123Z,99165.28
2023-04-17T18:05:28.921Z,99165.16
2023-04-17T18:07:55.745Z,99158.78
2023-04-17T18:10:22.267Z,99164.06
2023-04-17T18:12:49.731Z,99171.47
2023-04-17T18:15:16.449Z,99164.94
2023-04-17T18:17:43.072Z,99162.72
2023-04-17T18:20:10.296Z,99160.06
2023-04-17T18:22:38.246Z,99168.19
2023-04-17T18:25:06.964Z,99171.88
2023-04-17T18:27:36.224Z,99169.97
2023-04-17T18:30:08.411Z,99173.16
2023-04-17T18:32:35.973Z,99177.44
2023-04-17T18:35:02.886Z,99176.69
2023-04-17T18:37:29.413Z,99182.09
2023-04-17T18:39:56.025Z,99183.66
2023-04-17T18:42:22.818Z,99183.78
2023-04-17T18:44:49.882Z,99190.63
2023-04-17T18:47:16.750Z,99188.50
2023-04-17T18:49:43.390Z,99190.00
2023-04-17T18:52:09.908Z,99192.41
2023-04-17T18:54:36.627Z,99194.72
2023-04-17T18:57:03.238Z,99200.25
2023-04-17T18:59:30.176Z,99201.69
2023-04-17T19:01:56.822Z,99197.41
2023-04-17T19:04:23.443Z,99205.75
2023-04-17T19:06:50.138Z,99208.78
2023-04-17T19:09:16.633Z,99197.81
2023-04-17T19:11:43.399Z,99194.25
2023-04-17T19:14:09.962Z,99194.66
2023-04-17T19:16:36.581Z,99190.63
2023-04-17T19:19:05.380Z,99193.41
2023-04-17T19:21:32.716Z,99191.25
2023-04-17T19:23:59.209Z,99195.88
2023-04-17T19:26:25.799Z,99197.16
2023-04-17T19:28:52.264Z,99191.09
2023-04-17T19:31:18.806Z,99193.75
2023-04-17T19:33:45.330Z,99200.00
2023-04-17T19:36:11.798Z,99201.25
2023-04-17T19:38:38.355Z,99198.31
2023-04-17T19:41:17.793Z,99194.06
2023-04-17T19:43:51.672Z,99198.69
2023-04-17T19:46:20.422Z,99195.13
2023-04-17T19:48:48.179Z,99193.81
2023-04-17T19:51:15.841Z,99195.69
2023-04-17T19:53:44.905Z,99200.06
2023-04-17T19:56:11.572Z,99195.09
2023-04-17T19:58:38.596Z,99191.31
2023-04-17T20:01:05.550Z,99194.16
2023-04-17T20:03:33.160Z,99192.94
2023-04-17T20:06:00.441Z,99192.56
2023-04-17T20:08:27.069Z,99193.91
2023-04-17T20:10:53.740Z,99197.84
2023-04-17T20:13:21.291Z,99199.75
2023-04-17T20:15:47.798Z,99200.97
2023-04-17T20:18:14.345Z,99194.84
2023-04-17T20:20:40.826Z,99202.34
2023-04-17T20:23:07.267Z,99207.59
2023-04-17T20:25:33.829Z,99207.34
2023-04-17T20:28:02.638Z,99206.69
2023-04-17T20:30:29.419Z,99206.97
2023-04-17T20:32:56.163Z,99205.63
2023-04-17T20:35:24.480Z,99210.13
2023-04-17T20:37:51.883Z,99208.03
2023-04-17T20:40:19.142Z,99207.06
2023-04-17T20:42:46.691Z,99217.00
2023-04-17T20:45:13.430Z,99208.66
2023-04-17T20:47:56.000Z,99206.56
2023-04-17T20:50:24.934Z,99204.66
2023-04-17T20:52:51.417Z,99203.69
2023-04-17T20:55:19.558Z,99200.06
2023-04-17T20:57:46.256Z,99196.28
2023-04-17T21:00:13.349Z,99197.72
2023-04-17T21:02:40.033Z,99200.94
2023-04-17T21:05:07.715Z,99198.84
2023-04-17T21:07:34.255Z,99190.00
2023-04-17T21:10:00.830Z,99200.19
2023-04-17T21:12:27.395Z,99194.53
2023-04-17T21:14:53.875Z,99196.63
2023-04-17T21:17:20.342Z,99192.97
2023-04-17T21:19:47.324Z,99190.25
2023-04-17T21:22:13.794Z,99185.16
2023-04-17T21:24:40.369Z,99185.03
2023-04-17T21:27:06.840Z,99193.25
2023-04-17T21:29:33.307Z,99187.47
2023-04-17T21:31:59.881Z,99184.41
2023-04-17T21:34:26.574Z,99188.84
2023-04-17T21:36:54.210Z,99189.09
2023-04-17T21:39:21.770Z,99191.41
2023-04-17T21:41:48.288Z,99188.34
2023-04-17T21:44:15.283Z,99187.72
2023-04-17T21:46:45.947Z,99189.75
2023-04-17T21:49:12.489Z,99189.75
2023-04-17T21:51:39.178Z,99187.75
2023-04-17T21:54:05.793Z,99191.47
2023-04-17T21:56:32.299Z,99190.84
2023-04-17T21:58:58.765Z,99189.75
2023-04-17T22:01:25.356Z,99183.16
2023-04-17T22:03:51.941Z,99186.09
2023-04-17T22:06:18.873Z,99188.44
2023-04-17T22:08:46.228Z,99185.78
2023-04-17T22:11:12.701Z,99180.09
2023-04-17T22:13:39.220Z,99191.44
2023-04-17T22:16:06.418Z,99185.00
2023-04-17T22:18:32.916Z,99192.44
2023-04-17T22:20:59.424Z,99191.81
2023-04-17T22:23:25.904Z,99187.94
2023-04-17T22:25:52.405Z,99185.91
2023-04-17T22:28:18.955Z,99187.28
2023-04-17T22:30:45.481Z,99198.22
2023-04-17T22:33:11.984Z,99196.16
2023-04-17T22:35:38.466Z,99188.28
2023-04-17T22:38:04.942Z,99188.31
2023-04-17T22:40:31.517Z,99195.41
2023-04-17T22:42:57.969Z,99199.78
2023-04-17T22:45:24.446Z,99198.34
2023-04-17T22:47:50.974Z,99202.22
2023-04-17T22:50:18.059Z,99202.06
2023-04-17T22:52:44.580Z,99197.66
2023-04-17T22:55:11.329Z,99200.91
2023-04-17T22:57:38.017Z,99205.72
2023-04-17T23:00:07.436Z,99202.56
2023-04-17T23:02:33.985Z,99195.97
2023-04-17T23:05:00.546Z,99198.22
2023-04-17T23:07:27.323Z,99196.22
2023-04-17T23:09:53.852Z,99192.97
2023-04-17T23:12:20.940Z,99197.75
2023-04-17T23:14:50.325Z,99198.56
2023-04-17T23:17:16.852Z,99197.91
2023-04-17T23:19:43.383Z,99192.47
2023-04-17T23:22:09.998Z,99197.66
2023-04-17T23:24:36.547Z,99198.25
2023-04-17T23:27:03.076Z,99195.47
2023-04-17T23:29:29.667Z,99196.59
2023-04-17T23:31:56.179Z,99194.00
2023-04-17T23:34:22.658Z,99199.44
2023-04-17T23:36:49.170Z,99202.53
2023-04-17T23:39:15.612Z,99201.41
2023-04-17T23:41:45.586Z,99195.84
2023-04-17T23:44:12.246Z,99197.34
2023-04-17T23:46:38.941Z,99207.00
2023-04-17T23:49:05.499Z,99198.34
2023-04-17T23:51:32.012Z,99195.53
2023-04-17T23:54:00.925Z,99200.56
2023-04-17T23:56:29.787Z,99200.56
2023-04-17T23:58:57.034Z,99194.25
